Time;durP1;ratioP1;P1;durP2;ratioP2;P2;SDS_P1;SDS_P2;PMS_P1;PMS_P2;Temp;Humidity;BMP_temperature;BMP_pressure;BME280_temperature;BME280_humidity;BME280_pressure;Samples;Min_cycle;Max_cycle;Signal;HPM_P1;HPM_P2
2022/07/04 00:09:31;;;;;;;8.90;7.80;;;;;;;16.98;65.59;98733.41;433156;1270;108805;-41
2022/07/04 00:19:39;;;;;;;14.60;9.40;;;;;;;16.98;66.21;98724.42;433106;1270;97933;-42
2022/07/04 00:29:46;;;;;;;12.00;9.80;;;;;;;16.89;66.41;98720.39;433004;1269;111482;-41
2022/07/04 00:39:55;;;;;;;10.60;9.10;;;;;;;16.72;66.63;98730.27;433245;1269;109358;-41
2022/07/04 00:50:02;;;;;;;8.50;7.60;;;;;;;16.55;66.60;98725.27;433043;1270;97934;-41
2022/07/04 01:00:11;;;;;;;9.60;7.80;;;;;;;16.44;67.11;98714.05;433162;1269;111409;-42
2022/07/04 01:10:18;;;;;;;9.50;8.50;;;;;;;16.54;67.70;98702.52;434200;1258;108792;-43
2022/07/04 01:20:24;;;;;;;10.10;9.00;;;;;;;16.69;68.18;98700.95;433811;1267;97517;-43
2022/07/04 01:30:32;;;;;;;10.30;7.80;;;;;;;16.72;68.38;98701.16;434068;1268;108900;-41
2022/07/04 01:40:39;;;;;;;10.60;9.20;;;;;;;16.71;68.82;98698.06;433940;1268;97496;-41
2022/07/04 01:50:46;;;;;;;10.80;9.80;;;;;;;16.70;69.06;98698.34;434024;1267;110071;-42
2022/07/04 02:11:19;;;;;;;11.90;9.50;;;;;;;16.61;69.75;98700.73;433877;1268;97914;-42
2022/07/04 02:21:26;;;;;;;10.60;9.50;;;;;;;16.60;70.09;98698.69;433915;1268;108787;-42
2022/07/04 02:31:34;;;;;;;11.70;10.50;;;;;;;16.51;70.25;98688.42;433922;1268;97989;-42
2022/07/04 02:41:42;;;;;;;12.50;10.20;;;;;;;16.42;70.38;98685.86;433965;1267;110945;-41
2022/07/04 02:51:49;;;;;;;14.00;10.90;;;;;;;16.33;70.79;98680.30;434127;1268;108793;-41
2022/07/04 03:01:57;;;;;;;13.20;10.60;;;;;;;16.31;71.30;98672.55;434105;1267;98185;-42
2022/07/04 03:12:04;;;;;;;11.70;10.40;;;;;;;16.42;71.59;98676.14;433886;1267;108731;-41
2022/07/04 03:22:12;;;;;;;12.50;11.00;;;;;;;16.90;71.42;98669.64;434013;1268;97491;-40
2022/07/04 03:32:19;;;;;;;10.00;8.70;;;;;;;19.39;69.88;98667.84;434077;1267;111012;-42
2022/07/04 03:42:26;;;;;;;10.60;9.50;;;;;;;21.38;67.79;98686.41;433903;1268;108756;-43
2022/07/04 03:52:34;;;;;;;8.70;7.90;;;;;;;22.63;65.64;98684.77;434112;1267;97047;-42
2022/07/04 04:02:41;;;;;;;9.80;6.80;;;;;;;23.97;63.70;98698.65;433805;1268;109275;-42
2022/07/04 04:12:54;;;;;;;11.40;6.90;;;;;;;25.17;62.07;98710.73;433888;1268;98018;-40
2022/07/04 04:23:01;;;;;;;7.20;6.20;;;;;;;26.38;59.95;98711.83;434098;1268;111102;-43
2022/07/04 04:33:09;;;;;;;9.90;6.60;;;;;;;27.13;57.80;98694.34;433339;1268;109006;-43
2022/07/04 04:43:16;;;;;;;6.00;5.40;;;;;;;27.04;55.76;98687.79;432786;1270;97928;-42
2022/07/04 04:53:25;;;;;;;10.00;7.20;;;;;;;26.94;54.44;98691.23;434007;1268;111135;-42
2022/07/04 05:03:32;;;;;;;13.90;7.70;;;;;;;26.49;53.67;98692.55;433995;1268;109081;-42
2022/07/04 05:13:40;;;;;;;10.90;7.00;;;;;;;26.67;53.64;98695.45;433691;1268;97906;-44
2022/07/04 05:23:47;;;;;;;14.90;7.40;;;;;;;26.65;53.05;98687.64;433968;1268;111306;-45
2022/07/04 05:33:52;;;;;;;8.60;7.20;;;;;;;26.89;53.38;98692.52;434030;1268;108715;-43
2022/07/04 05:44:00;;;;;;;13.00;7.20;;;;;;;27.03;52.95;98691.06;434145;1268;97996;-44
2022/07/04 05:54:07;;;;;;;14.40;7.10;;;;;;;27.94;52.73;98699.35;433944;1267;108781;-44
2022/07/04 06:04:14;;;;;;;11.30;8.10;;;;;;;28.45;51.59;98703.67;434078;1268;97924;-42
2022/07/04 06:14:21;;;;;;;10.80;8.20;;;;;;;27.96;50.24;98688.94;433770;1268;111168;-43
2022/07/04 06:24:28;;;;;;;14.40;9.50;;;;;;;28.49;50.81;98700.96;433909;1267;109002;-42
2022/07/04 06:45:01;;;;;;;8.20;7.00;;;;;;;29.15;49.46;98710.61;433900;1267;111240;-47
2022/07/04 06:55:06;;;;;;;9.50;7.30;;;;;;;29.53;48.72;98716.17;433980;1268;107955;-43
2022/07/04 07:05:13;;;;;;;7.30;6.50;;;;;;;29.74;48.54;98710.20;434008;1268;98031;-43
2022/07/04 07:15:21;;;;;;;8.50;5.70;;;;;;;30.18;47.56;98692.80;434033;1268;110980;-47
2022/07/04 07:25:27;;;;;;;9.20;5.40;;;;;;;30.83;46.48;98698.98;433974;1268;108780;-45
2022/07/04 07:35:33;;;;;;;23.90;5.90;;;;;;;30.90;44.91;98693.79;433994;1268;97891;-45
2022/07/04 07:45:40;;;;;;;6.80;4.50;;;;;;;31.30;43.36;98692.00;434241;1268;111123;-45
2022/07/04 07:55:47;;;;;;;24.40;4.80;;;;;;;31.33;42.52;98693.45;433963;1268;109011;-44
2022/07/04 08:05:55;;;;;;;81.10;9.20;;;;;;;31.49;41.23;98691.68;434155;1268;97990;-43
2022/07/04 08:16:02;;;;;;;4.80;2.70;;;;;;;31.67;40.04;98689.08;433835;1268;108878;-45
2022/07/04 08:26:10;;;;;;;6.60;3.40;;;;;;;31.25;38.63;98690.66;433822;1268;97996;-43
2022/07/04 08:36:17;;;;;;;4.50;4.10;;;;;;;31.64;38.43;98693.87;434048;1268;110299;-46
2022/07/04 09:06:58;;;;;;;7.20;3.70;;;;;;;31.86;36.68;98699.36;434024;1268;111649;-44
2022/07/04 09:17:07;;;;;;;5.00;3.80;;;;;;;31.97;36.59;98692.34;433352;1268;108833;-43
2022/07/04 09:27:30;;;;;;;3.90;3.60;;;;;;;32.21;36.83;98684.52;434058;1268;97926;-44
2022/07/04 09:47:48;;;;;;;4.30;3.90;;;;;;;31.70;35.93;98662.79;434097;1267;111056;-44
2022/07/04 09:57:57;;;;;;;4.30;3.10;;;;;;;32.19;36.72;98661.27;433846;1267;108879;-46
2022/07/04 10:08:07;;;;;;;5.70;3.20;;;;;;;32.57;36.08;98660.95;434033;1268;97918;-44
2022/07/04 10:18:14;;;;;;;3.60;3.30;;;;;;;32.62;35.83;98659.60;434098;1268;108763;-44
2022/07/04 10:28:22;;;;;;;6.10;4.10;;;;;;;32.53;35.76;98659.20;434050;1268;97493;-47
2022/07/04 10:38:31;;;;;;;6.90;4.10;;;;;;;32.53;35.93;98661.30;434007;1268;96678;-43
2022/07/04 10:48:49;;;;;;;4.20;3.70;;;;;;;32.81;35.55;98652.21;434051;1267;110789;-43
2022/07/04 10:58:57;;;;;;;3.90;3.00;;;;;;;32.96;35.27;98653.30;433944;1268;109145;-45
2022/07/04 11:09:15;;;;;;;4.30;3.90;;;;;;;32.06;34.78;98658.59;433905;1268;97923;-44
2022/07/04 11:19:22;;;;;;;4.00;3.70;;;;;;;31.96;35.57;98644.27;434091;1268;109037;-47
2022/07/04 11:29:31;;;;;;;4.50;4.10;;;;;;;32.30;35.59;98641.41;434114;1268;97904;-44
2022/07/04 11:39:38;;;;;;;5.40;3.30;;;;;;;32.38;35.49;98632.05;433938;1268;110927;-47
2022/07/04 11:49:45;;;;;;;3.20;2.90;;;;;;;32.42;35.32;98623.88;433963;1268;108728;-46
2022/07/04 11:59:53;;;;;;;4.30;3.30;;;;;;;32.72;34.78;98619.97;434185;1267;97919;-42
2022/07/04 12:10:08;;;;;;;4.60;2.70;;;;;;;32.87;34.59;98611.13;433964;1268;110575;-45
2022/07/04 12:20:17;;;;;;;;;;;;;;;33.00;33.96;98598.02;433976;1268;108944;-42
2022/07/04 12:30:24;;;;;;;6.70;3.50;;;;;;;32.80;33.77;98592.44;433986;1268;97480;-43
2022/07/04 12:40:32;;;;;;;2.70;2.50;;;;;;;32.96;33.43;98595.70;434024;1268;110872;-45
2022/07/04 12:50:39;;;;;;;5.20;2.40;;;;;;;32.75;32.63;98596.53;434180;1267;109785;-43
2022/07/04 13:00:47;;;;;;;3.30;3.10;;;;;;;32.33;32.79;98600.09;434148;1268;97918;-46
2022/07/04 13:21:17;;;;;;;3.00;2.70;;;;;;;32.42;32.86;98588.53;433820;1268;109368;-43
2022/07/04 13:31:25;;;;;;;5.80;3.60;;;;;;;31.91;32.91;98591.93;434134;1267;96643;-42
2022/07/04 13:51:39;;;;;;;4.90;3.60;;;;;;;31.40;34.58;98604.19;433953;1267;107766;-44
2022/07/04 14:01:47;;;;;;;4.10;3.60;;;;;;;31.48;34.69;98600.77;433976;1268;97892;-43
2022/07/04 14:11:52;;;;;;;8.30;4.40;;;;;;;31.14;34.87;98595.83;434004;1268;109979;-43
2022/07/04 14:22:00;;;;;;;5.90;4.10;;;;;;;30.88;35.38;98597.58;433983;1268;108811;-42
2022/07/04 14:32:08;;;;;;;4.80;3.80;;;;;;;31.23;35.69;98587.45;433860;1268;97898;-43
2022/07/04 14:42:16;;;;;;;11.10;2.80;;;;;;;31.28;35.37;98582.86;434086;1268;110950;-42
2022/07/04 14:52:24;;;;;;;5.70;2.30;;;;;;;31.23;35.25;98584.73;434027;1268;108970;-42
2022/07/04 15:02:31;;;;;;;4.30;1.70;;;;;;;31.02;35.03;98578.15;433963;1267;97903;-42
2022/07/04 15:12:39;;;;;;;36.90;4.40;;;;;;;30.68;34.86;98575.08;434052;1267;110058;-43
2022/07/04 15:33:17;;;;;;;5.80;2.30;;;;;;;30.40;34.73;98571.05;434051;1267;97921;-46
2022/07/04 15:43:25;;;;;;;2.20;1.90;;;;;;;30.35;35.40;98570.89;434058;1268;111121;-42
2022/07/04 15:53:32;;;;;;;7.30;2.30;;;;;;;30.02;35.28;98572.66;433821;1268;109166;-43
2022/07/04 16:03:40;;;;;;;2.60;2.30;;;;;;;29.86;35.56;98578.33;433782;1268;97955;-43
2022/07/04 16:13:47;;;;;;;7.70;1.80;;;;;;;29.98;35.48;98572.48;434008;1268;111306;-46
2022/07/04 16:23:55;;;;;;;5.60;1.40;;;;;;;29.97;34.82;98569.05;434041;1268;109277;-42
2022/07/04 16:34:03;;;;;;;1.40;1.30;;;;;;;29.63;33.67;98569.67;434068;1268;98124;-42
2022/07/04 16:44:10;;;;;;;1.60;1.10;;;;;;;29.35;33.33;98572.85;434087;1267;111066;-41
2022/07/04 16:54:18;;;;;;;6.60;1.40;;;;;;;29.08;32.88;98577.19;433801;1268;108598;-42
2022/07/04 17:04:25;;;;;;;3.20;1.70;;;;;;;28.82;33.43;98566.61;434032;1268;98413;-42
2022/07/04 17:14:32;;;;;;;1.80;1.60;;;;;;;28.60;33.82;98566.30;433887;1268;112126;-43
2022/07/04 17:24:40;;;;;;;3.00;2.10;;;;;;;28.41;34.57;98557.93;434035;1267;108803;-43
2022/07/04 17:34:48;;;;;;;2.20;2.00;;;;;;;28.11;34.85;98561.47;433970;1268;97948;-46
2022/07/04 17:44:56;;;;;;;18.40;3.20;;;;;;;27.86;35.34;98560.92;434082;1268;111152;-43
2022/07/04 17:55:04;;;;;;;3.80;2.40;;;;;;;27.51;35.83;98568.33;433948;1267;108895;-43
2022/07/04 18:05:18;;;;;;;5.20;3.10;;;;;;;27.22;36.48;98573.83;433913;1268;98005;-43
2022/07/04 18:15:27;;;;;;;8.60;3.10;;;;;;;26.84;37.38;98572.73;433815;1268;110990;-42
2022/07/04 18:25:34;;;;;;;5.00;3.20;;;;;;;26.48;38.25;98573.61;433815;1268;108698;-41
2022/07/04 18:35:43;;;;;;;9.30;3.60;;;;;;;26.13;39.04;98572.06;434082;1268;97501;-42
2022/07/04 18:45:51;;;;;;;5.40;4.30;;;;;;;25.76;40.35;98571.52;434129;1267;111099;-42
2022/07/04 18:55:59;;;;;;;6.80;4.40;;;;;;;25.37;41.12;98575.42;434092;1268;107931;-41
2022/07/04 19:06:08;;;;;;;11.90;5.30;;;;;;;25.03;42.18;98584.30;434210;1268;97881;-40
2022/07/04 19:16:15;;;;;;;5.70;4.10;;;;;;;24.74;43.17;98591.33;433979;1268;108721;-41
2022/07/04 19:26:22;;;;;;;7.30;4.60;;;;;;;24.57;43.58;98602.55;433506;1268;97932;-45
2022/07/04 19:36:28;;;;;;;;;;;;;;;24.46;44.01;98605.09;434040;1267;111241;-41
2022/07/04 19:46:35;;;;;;;9.80;5.30;;;;;;;24.38;44.65;98620.80;434145;1268;109057;-42
2022/07/04 19:56:43;;;;;;;15.30;5.50;;;;;;;24.27;45.26;98631.10;434000;1268;97900;-45
2022/07/04 20:06:51;;;;;;;7.70;5.70;;;;;;;24.07;45.96;98629.51;434001;1267;111117;-43
2022/07/04 20:16:57;;;;;;;;;;;;;;;23.94;46.81;98639.69;433844;1267;108955;-41
2022/07/04 20:27:04;;;;;;;8.80;5.60;;;;;;;23.82;47.48;98650.94;434076;1268;97897;-41
2022/07/04 20:37:19;;;;;;;14.10;8.20;;;;;;;23.69;47.90;98649.48;434007;1267;111046;-42
2022/07/04 20:57:36;;;;;;;9.80;7.50;;;;;;;23.32;49.14;98647.55;433984;1266;327728;-44
2022/07/04 21:07:42;;;;;;;;;;;;;;;23.07;49.70;98645.05;434082;1268;111157;-46
2022/07/04 21:17:49;;;;;;;12.80;8.70;;;;;;;22.75;50.25;98645.40;434015;1267;108781;-46
2022/07/04 21:27:56;;;;;;;15.10;9.70;;;;;;;22.46;50.81;98641.80;433917;1268;96679;-42
2022/07/04 21:38:03;;;;;;;11.30;9.80;;;;;;;22.12;51.28;98643.58;433912;1268;110953;-45
2022/07/04 21:48:09;;;;;;;;;;;;;;;21.93;51.96;98641.35;434001;1268;107729;-42
2022/07/04 21:58:16;;;;;;;16.70;9.20;;;;;;;21.87;52.73;98655.59;433863;1267;97949;-42
2022/07/04 22:08:23;;;;;;;17.80;11.20;;;;;;;21.94;53.34;98653.48;433860;1268;108536;-44
2022/07/04 22:18:29;;;;;;;14.20;10.00;;;;;;;22.02;53.88;98651.39;434033;1267;97910;-43
2022/07/04 22:28:36;;;;;;;13.80;9.60;;;;;;;21.90;54.26;98661.33;434013;1268;111104;-42
2022/07/04 22:38:44;;;;;;;11.00;9.20;;;;;;;21.78;54.58;98672.73;434066;1267;108713;-42
2022/07/04 22:48:52;;;;;;;9.80;8.80;;;;;;;21.67;54.93;98690.48;433444;1268;97916;-42
2022/07/04 22:59:00;;;;;;;13.20;10.90;;;;;;;21.76;55.45;98695.70;433944;1268;108814;-43
2022/07/04 23:09:07;;;;;;;18.00;12.50;;;;;;;21.85;55.55;98691.61;434068;1267;97898;-43
2022/07/04 23:19:13;;;;;;;16.50;12.10;;;;;;;21.86;55.78;98678.98;433026;1271;98024;-45
2022/07/04 23:29:21;;;;;;;14.60;11.50;;;;;;;21.87;56.07;98668.73;433948;1268;110834;-42
2022/07/04 23:39:29;;;;;;;16.60;10.90;;;;;;;21.88;56.39;98669.56;433951;1267;108298;-43
2022/07/04 23:49:37;;;;;;;19.70;10.90;;;;;;;21.77;56.59;98682.13;434224;1268;96667;-43
2022/07/04 23:59:44;;;;;;;12.60;10.70;;;;;;;21.48;56.75;98685.14;434096;1268;110123;-46
